createdAt,value
2018-01-25T00:00:56.982Z,6.98
2018-01-25T00:01:57.236Z,7.08
2018-01-25T00:02:57.497Z,7
2018-01-25T00:03:56.943Z,7.01
2018-01-25T00:04:56.928Z,7.01
2018-01-25T00:05:57.199Z,7.01
2018-01-25T00:06:56.903Z,7.01
2018-01-25T00:07:56.890Z,7.05
2018-01-25T00:08:57.145Z,7
2018-01-25T00:09:56.862Z,7
2018-01-25T00:10:56.871Z,7.09
2018-01-25T00:11:57.108Z,7.13
2018-01-25T00:12:56.823Z,7.18
2018-01-25T00:13:56.810Z,7.16
2018-01-25T00:14:57.092Z,7.18
2018-01-25T00:15:57.325Z,7.21
2018-01-25T00:16:56.770Z,7.22
2018-01-25T00:17:56.776Z,7.21
2018-01-25T00:18:57.287Z,7.22
2018-01-25T00:19:57.002Z,7.22
2018-01-25T00:20:56.735Z,7.11
2018-01-25T00:21:56.704Z,7.19
2018-01-25T00:22:56.976Z,7.15
2018-01-25T00:23:56.678Z,7.26
2018-01-25T00:24:56.667Z,7.22
2018-01-25T00:25:56.923Z,7.21
2018-01-25T00:26:56.636Z,7.26
2018-01-25T00:27:56.896Z,7.21
2018-01-25T00:28:56.899Z,7.27
2018-01-25T00:29:57.140Z,7.27
2018-01-25T00:30:56.587Z,7.23
2018-01-25T00:31:56.846Z,7.22
2018-01-25T00:32:56.558Z,7.3
2018-01-25T00:33:56.822Z,7.19
2018-01-25T00:34:56.534Z,7.21
2018-01-25T00:35:56.523Z,7.19
2018-01-25T00:36:56.510Z,7.23
2018-01-25T00:37:56.515Z,7.26
2018-01-25T00:38:56.502Z,7.21
2018-01-25T00:39:57.010Z,7.19
2018-01-25T00:40:56.455Z,7.18
2018-01-25T00:41:56.442Z,7.19
2018-01-25T00:42:56.431Z,7.15
2018-01-25T00:43:56.686Z,7.15
2018-01-25T00:44:56.944Z,7.09
2018-01-25T00:45:56.683Z,7.12
2018-01-25T00:46:56.931Z,7.19
2018-01-25T00:47:56.380Z,7.01
2018-01-25T00:48:56.349Z,7.11
2018-01-25T00:49:56.631Z,7.08
2018-01-25T00:50:56.595Z,7.04
2018-01-25T00:51:56.309Z,6.97
2018-01-25T00:52:56.586Z,7.03
2018-01-25T00:53:56.829Z,7.04
2018-01-25T00:54:56.272Z,6.98
2018-01-25T00:55:56.257Z,7.01
2018-01-25T00:56:56.540Z,7
2018-01-25T00:57:56.549Z,6.97
2018-01-25T00:58:56.506Z,7.08
2018-01-25T00:59:56.478Z,7.08
2018-01-25T01:00:56.215Z,7.12
2018-01-25T01:01:56.733Z,6.98
2018-01-25T01:02:56.437Z,7.08
2018-01-25T01:03:56.176Z,7.04
2018-01-25T01:04:56.426Z,6.98
2018-01-25T01:05:56.696Z,7
2018-01-25T01:06:56.114Z,7.01
2018-01-25T01:07:56.381Z,7.01
2018-01-25T01:08:56.368Z,7.03
2018-01-25T01:09:56.074Z,7
2018-01-25T01:10:56.058Z,7
2018-01-25T01:11:56.053Z,7.03
2018-01-25T01:12:56.306Z,7.01
2018-01-25T01:13:56.290Z,7.03
2018-01-25T01:14:56.030Z,7.04
2018-01-25T01:15:56.265Z,6.98
2018-01-25T01:16:56.269Z,7
2018-01-25T01:17:55.981Z,6.9
2018-01-25T01:18:56.225Z,6.91
2018-01-25T01:19:56.214Z,6.88
2018-01-25T01:20:56.201Z,6.95
2018-01-25T01:21:56.195Z,6.9
2018-01-25T01:22:55.901Z,6.98
2018-01-25T01:23:55.986Z,6.94
2018-01-25T01:24:56.159Z,6.97
2018-01-25T01:25:56.131Z,6.98
2018-01-25T01:26:55.852Z,6.98
2018-01-25T01:27:56.106Z,7
2018-01-25T01:28:55.844Z,7
2018-01-25T01:29:56.083Z,6.93
2018-01-25T01:30:56.094Z,6.9
2018-01-25T01:31:56.057Z,6.91
2018-01-25T01:32:55.771Z,6.91
2018-01-25T01:33:55.758Z,6.95
2018-01-25T01:34:56.012Z,6.94
2018-01-25T01:35:56.001Z,6.88
2018-01-25T01:36:55.728Z,6.94
2018-01-25T01:37:55.976Z,6.83
2018-01-25T01:38:55.963Z,6.86
2018-01-25T01:39:55.947Z,6.88
2018-01-25T01:40:55.936Z,6.83
2018-01-25T01:41:55.649Z,6.79
2018-01-25T01:42:55.929Z,6.86
2018-01-25T01:43:55.893Z,6.76
2018-01-25T01:44:55.899Z,6.78
2018-01-25T01:45:55.869Z,6.83
2018-01-25T01:46:55.583Z,6.73
2018-01-25T01:47:55.848Z,6.78
2018-01-25T01:48:55.842Z,6.79
2018-01-25T01:49:55.543Z,6.73
2018-01-25T01:50:55.800Z,6.72
2018-01-25T01:51:56.074Z,6.72
2018-01-25T01:52:55.504Z,6.72
2018-01-25T01:53:55.520Z,6.67
2018-01-25T01:54:55.767Z,6.7
2018-01-25T01:55:55.760Z,6.65
2018-01-25T01:56:55.458Z,6.61
2018-01-25T01:57:55.713Z,6.72
2018-01-25T01:58:55.696Z,6.68
2018-01-25T01:59:55.696Z,6.67
2018-01-25T02:00:55.667Z,6.68
2018-01-25T02:01:55.940Z,6.72
2018-01-25T02:02:55.373Z,6.8
2018-01-25T02:03:55.373Z,6.8
2018-01-25T02:04:55.615Z,6.83
2018-01-25T02:05:55.598Z,6.82
2018-01-25T02:06:55.870Z,6.79
2018-01-25T02:07:55.304Z,6.79
2018-01-25T02:08:55.291Z,6.7
2018-01-25T02:09:55.279Z,6.8
2018-01-25T02:10:55.285Z,6.83
2018-01-25T02:11:55.523Z,6.83
2018-01-25T02:12:55.238Z,6.76
2018-01-25T02:13:55.496Z,6.85
2018-01-25T02:14:55.211Z,6.9
2018-01-25T02:15:55.738Z,6.86
2018-01-25T02:16:55.184Z,7.03
2018-01-25T02:17:55.443Z,6.97
2018-01-25T02:18:55.426Z,6.97
2018-01-25T02:19:55.442Z,7.05
2018-01-25T02:20:55.133Z,7.04
2018-01-25T02:21:55.118Z,7
2018-01-25T02:22:55.647Z,7.04
2018-01-25T02:23:55.363Z,7.05
2018-01-25T02:24:55.365Z,7.08
2018-01-25T02:25:55.352Z,7.09
2018-01-25T02:26:55.322Z,7.04
2018-01-25T02:27:55.579Z,7.09
2018-01-25T02:28:55.589Z,7.11
2018-01-25T02:29:55.011Z,7
2018-01-25T02:30:55.269Z,7.05
2018-01-25T02:31:55.540Z,7.05
2018-01-25T02:32:55.243Z,6.98
2018-01-25T02:33:55.228Z,6.86
2018-01-25T02:34:54.947Z,6.9
2018-01-25T02:35:55.501Z,6.9
2018-01-25T02:36:54.928Z,6.98
2018-01-25T02:37:54.907Z,6.91
2018-01-25T02:38:55.179Z,6.95
2018-01-25T02:39:54.893Z,6.91
2018-01-25T02:40:55.139Z,6.83
2018-01-25T02:41:54.865Z,6.86
2018-01-25T02:42:54.839Z,6.93
2018-01-25T02:43:55.370Z,6.88
2018-01-25T02:44:54.818Z,6.88
2018-01-25T02:45:55.069Z,6.86
2018-01-25T02:46:55.057Z,6.86
2018-01-25T02:47:55.061Z,6.98
2018-01-25T02:48:54.778Z,6.88
2018-01-25T02:49:55.325Z,6.98
2018-01-25T02:50:55.400Z,6.97
2018-01-25T02:51:55.551Z,6.95
2018-01-25T02:52:54.996Z,6.93
2018-01-25T02:53:55.469Z,6.9
2018-01-25T02:54:54.851Z,6.94
2018-01-25T02:55:55.119Z,6.88
2018-01-25T02:56:54.791Z,6.95
2018-01-25T02:57:55.547Z,6.86
2018-01-25T02:58:54.753Z,6.94
2018-01-25T02:59:55.222Z,6.93
2018-01-25T03:00:54.848Z,6.91
2018-01-25T03:01:54.762Z,6.94
2018-01-25T03:02:54.749Z,6.82
2018-01-25T03:03:54.854Z,6.86
2018-01-25T03:04:55.120Z,6.85
2018-01-25T03:05:55.101Z,6.83
2018-01-25T03:06:55.063Z,6.78
2018-01-25T03:07:54.777Z,6.68
2018-01-25T03:08:55.040Z,6.64
2018-01-25T03:09:54.511Z,6.65
2018-01-25T03:10:55.017Z,6.64
2018-01-25T03:11:54.738Z,6.67
2018-01-25T03:12:54.439Z,6.64
2018-01-25T03:13:54.967Z,6.64
2018-01-25T03:14:54.414Z,6.72
2018-01-25T03:15:54.400Z,6.6
2018-01-25T03:16:54.386Z,6.7
2018-01-25T03:17:54.373Z,6.61
2018-01-25T03:18:54.362Z,6.6
2018-01-25T03:19:54.348Z,6.61
2018-01-25T03:20:54.617Z,6.57
2018-01-25T03:21:54.376Z,6.6
2018-01-25T03:22:54.603Z,6.61
2018-01-25T03:23:54.672Z,6.57
2018-01-25T03:24:54.567Z,6.6
2018-01-25T03:25:54.264Z,6.54
2018-01-25T03:26:54.253Z,6.6
2018-01-25T03:27:54.237Z,6.62
2018-01-25T03:28:54.495Z,6.55
2018-01-25T03:29:54.482Z,6.6
2018-01-25T03:30:54.471Z,6.54
2018-01-25T03:31:54.184Z,6.51
2018-01-25T03:32:54.241Z,6.61
2018-01-25T03:33:54.159Z,6.58
2018-01-25T03:34:54.155Z,6.58
2018-01-25T03:35:54.405Z,6.58
2018-01-25T03:36:54.119Z,6.57
2018-01-25T03:37:54.105Z,6.49
2018-01-25T03:38:54.089Z,6.46
2018-01-25T03:39:54.355Z,6.51
2018-01-25T03:40:54.064Z,6.44
2018-01-25T03:41:54.051Z,6.49
2018-01-25T03:42:54.307Z,6.51
2018-01-25T03:43:54.023Z,6.49
2018-01-25T03:44:54.280Z,6.54
2018-01-25T03:45:54.549Z,6.55
2018-01-25T03:46:53.983Z,6.55
2018-01-25T03:47:54.289Z,6.55
2018-01-25T03:48:53.957Z,6.52
2018-01-25T03:49:54.212Z,6.49
2018-01-25T03:50:54.527Z,6.51
2018-01-25T03:51:54.488Z,6.47
2018-01-25T03:52:53.903Z,6.55
2018-01-25T03:53:54.162Z,6.57
2018-01-25T03:54:53.917Z,6.54
2018-01-25T03:55:53.870Z,6.54
2018-01-25T03:56:54.148Z,6.49
2018-01-25T03:57:54.104Z,6.47
2018-01-25T03:58:54.094Z,6.52
2018-01-25T03:59:54.095Z,6.52
2018-01-25T04:00:54.076Z,6.52
2018-01-25T04:01:53.781Z,6.54
2018-01-25T04:02:53.769Z,6.52
2018-01-25T04:03:54.298Z,6.57
2018-01-25T04:04:53.753Z,6.52
2018-01-25T04:05:53.725Z,6.51
2018-01-25T04:06:53.712Z,6.49
2018-01-25T04:07:53.710Z,6.57
2018-01-25T04:08:53.686Z,6.52
2018-01-25T04:09:53.673Z,6.52
2018-01-25T04:10:53.927Z,6.55
2018-01-25T04:11:53.933Z,6.52
2018-01-25T04:12:53.630Z,6.57
2018-01-25T04:13:53.886Z,6.44
2018-01-25T04:14:53.872Z,6.49
2018-01-25T04:15:53.871Z,6.47
2018-01-25T04:16:53.849Z,6.46
2018-01-25T04:17:53.840Z,6.49
2018-01-25T04:18:54.105Z,6.51
2018-01-25T04:19:53.533Z,6.52
2018-01-25T04:20:53.816Z,6.52
2018-01-25T04:21:53.778Z,6.61
2018-01-25T04:22:53.491Z,6.57
2018-01-25T04:23:53.768Z,6.51
2018-01-25T04:24:53.470Z,6.54
2018-01-25T04:25:53.994Z,6.55
2018-01-25T04:26:53.987Z,6.55
2018-01-25T04:27:53.474Z,6.52
2018-01-25T04:28:53.685Z,6.58
2018-01-25T04:29:53.401Z,6.6
2018-01-25T04:30:53.383Z,6.61
2018-01-25T04:31:53.644Z,6.51
2018-01-25T04:32:53.357Z,6.54
2018-01-25T04:33:53.342Z,6.6
2018-01-25T04:34:53.350Z,6.54
2018-01-25T04:35:53.598Z,6.61
2018-01-25T04:36:53.310Z,6.54
2018-01-25T04:37:53.289Z,6.61
2018-01-25T04:38:53.556Z,6.6
2018-01-25T04:39:53.284Z,6.62
2018-01-25T04:40:53.249Z,6.58
2018-01-25T04:41:53.506Z,6.58
2018-01-25T04:42:53.761Z,6.57
2018-01-25T04:43:53.216Z,6.58
2018-01-25T04:44:53.201Z,6.62
2018-01-25T04:45:53.454Z,6.58
2018-01-25T04:46:53.437Z,6.61
2018-01-25T04:47:53.154Z,6.57
2018-01-25T04:48:53.411Z,6.58
2018-01-25T04:49:53.411Z,6.52
2018-01-25T04:50:53.115Z,6.55
2018-01-25T04:51:53.100Z,6.62
2018-01-25T04:52:53.086Z,6.65
2018-01-25T04:53:53.371Z,6.75
2018-01-25T04:54:53.064Z,6.8
2018-01-25T04:55:53.043Z,6.86
2018-01-25T04:56:53.301Z,6.93
2018-01-25T04:57:53.559Z,7
2018-01-25T04:58:53.295Z,7.01
2018-01-25T04:59:53.536Z,7.03
2018-01-25T05:00:53.001Z,7.09
2018-01-25T05:01:52.964Z,7.09
2018-01-25T05:02:53.513Z,7.21
2018-01-25T05:03:53.223Z,7.15
2018-01-25T05:04:53.197Z,7.13
2018-01-25T05:05:52.913Z,7.18
2018-01-25T05:06:53.172Z,7.08
2018-01-25T05:07:52.902Z,7.16
2018-01-25T05:08:53.139Z,7.18
2018-01-25T05:09:53.765Z,7.12
2018-01-25T05:10:53.118Z,7.18
2018-01-25T05:11:52.841Z,7.16
2018-01-25T05:12:52.835Z,7.26
2018-01-25T05:13:53.080Z,7.21
2018-01-25T05:14:53.063Z,7.19
2018-01-25T05:15:53.049Z,7.11
2018-01-25T05:16:53.055Z,7.11
2018-01-25T05:17:52.751Z,7.04
2018-01-25T05:18:52.738Z,7.12
2018-01-25T05:19:52.742Z,7.05
2018-01-25T05:20:53.019Z,7.18
2018-01-25T05:21:52.982Z,7.01
2018-01-25T05:22:52.685Z,7.05
2018-01-25T05:23:53.217Z,7.03
2018-01-25T05:24:52.693Z,7.08
2018-01-25T05:25:52.920Z,7.05
2018-01-25T05:26:52.902Z,6.98
2018-01-25T05:27:52.619Z,7.05
2018-01-25T05:28:52.603Z,7.04
2018-01-25T05:29:53.148Z,7.01
2018-01-25T05:30:52.580Z,6.98
2018-01-25T05:31:52.566Z,7.01
2018-01-25T05:32:52.845Z,7.01
2018-01-25T05:33:52.544Z,6.98
2018-01-25T05:34:52.526Z,6.98
2018-01-25T05:35:53.056Z,7.05
2018-01-25T05:36:52.502Z,7.03
2018-01-25T05:37:52.774Z,7
2018-01-25T05:38:52.744Z,6.95
2018-01-25T05:39:52.459Z,6.91
2018-01-25T05:40:52.991Z,7
2018-01-25T05:41:52.433Z,6.98
2018-01-25T05:42:52.965Z,6.95
2018-01-25T05:43:52.407Z,7.05
2018-01-25T05:44:52.683Z,7.08
2018-01-25T05:45:52.380Z,7.16
2018-01-25T05:46:52.368Z,7.19
2018-01-25T05:47:52.354Z,7.22
2018-01-25T05:48:52.632Z,7.22
2018-01-25T05:49:52.871Z,7.22
2018-01-25T05:50:52.603Z,7.22
2018-01-25T05:51:52.304Z,7.27
2018-01-25T05:52:52.558Z,7.23
2018-01-25T05:53:52.894Z,7.29
2018-01-25T05:54:52.558Z,7.29
2018-01-25T05:55:52.261Z,7.37
2018-01-25T05:56:52.522Z,7.33
2018-01-25T05:57:52.493Z,7.31
2018-01-25T05:58:52.496Z,7.4
2018-01-25T05:59:52.468Z,7.4
2018-01-25T06:00:52.183Z,7.36
2018-01-25T06:01:52.453Z,7.54
2018-01-25T06:02:52.156Z,7.3
2018-01-25T06:03:52.418Z,7.48
2018-01-25T06:04:52.133Z,7.39
2018-01-25T06:05:52.405Z,7.37
2018-01-25T06:06:52.105Z,7.4
2018-01-25T06:07:52.091Z,7.37
2018-01-25T06:08:52.349Z,7.41
2018-01-25T06:09:52.911Z,7.37
2018-01-25T06:10:52.520Z,7.44
2018-01-25T06:11:52.039Z,7.4
2018-01-25T06:12:52.026Z,7.4
2018-01-25T06:13:52.283Z,7.37
2018-01-25T06:14:52.581Z,7.39
2018-01-25T06:15:52.279Z,7.31
2018-01-25T06:16:52.529Z,7.29
2018-01-25T06:17:52.233Z,7.34
2018-01-25T06:18:52.198Z,7.36
2018-01-25T06:19:52.206Z,7.27
2018-01-25T06:20:52.199Z,7.3
2018-01-25T06:21:52.180Z,7.27
2018-01-25T06:22:51.898Z,7.26
2018-01-25T06:23:51.902Z,7.26
2018-01-25T06:24:52.141Z,7.26
2018-01-25T06:25:52.127Z,7.27
2018-01-25T06:26:52.115Z,7.22
2018-01-25T06:27:52.100Z,7.23
2018-01-25T06:28:52.107Z,7.37
2018-01-25T06:29:52.124Z,7.34
2018-01-25T06:30:52.076Z,7.31
2018-01-25T06:31:51.779Z,7.36
2018-01-25T06:32:51.782Z,7.4
2018-01-25T06:33:52.028Z,7.36
2018-01-25T06:34:52.029Z,7.36
2018-01-25T06:35:52.281Z,7.31
2018-01-25T06:36:51.714Z,7.33
2018-01-25T06:37:51.973Z,7.39
2018-01-25T06:38:51.960Z,7.39
2018-01-25T06:39:51.997Z,7.34
2018-01-25T06:40:51.933Z,7.4
2018-01-25T06:41:52.192Z,7.41
2018-01-25T06:42:52.207Z,7.36
2018-01-25T06:43:51.625Z,7.44
2018-01-25T06:44:51.612Z,7.44
2018-01-25T06:45:51.596Z,7.36
2018-01-25T06:46:51.629Z,7.39
2018-01-25T06:47:51.592Z,7.48
2018-01-25T06:48:51.847Z,7.34
2018-01-25T06:49:51.844Z,7.51
2018-01-25T06:50:51.806Z,7.34
2018-01-25T06:51:51.531Z,7.44
2018-01-25T06:52:52.662Z,7.51
2018-01-25T06:53:51.766Z,7.51
2018-01-25T06:54:51.765Z,7.41
2018-01-25T06:55:51.743Z,7.45
2018-01-25T06:56:51.727Z,7.45
2018-01-25T06:57:51.725Z,7.48
2018-01-25T06:58:51.700Z,7.4
2018-01-25T06:59:51.979Z,7.48
2018-01-25T07:00:51.712Z,7.54
2018-01-25T07:01:51.412Z,7.47
2018-01-25T07:02:51.921Z,7.37
2018-01-25T07:03:51.385Z,7.41
2018-01-25T07:04:51.355Z,7.47
2018-01-25T07:05:51.671Z,7.3
2018-01-25T07:06:51.343Z,7.49
2018-01-25T07:07:51.318Z,7.37
2018-01-25T07:08:51.311Z,7.4
2018-01-25T07:09:51.291Z,7.41
2018-01-25T07:10:51.570Z,7.44
2018-01-25T07:11:51.543Z,7.54
2018-01-25T07:12:51.522Z,7.41
2018-01-25T07:13:51.238Z,7.39
2018-01-25T07:14:51.496Z,7.47
2018-01-25T07:15:51.483Z,7.49
2018-01-25T07:16:51.470Z,7.51
2018-01-25T07:17:51.740Z,7.52
2018-01-25T07:18:51.448Z,7.51
2018-01-25T07:19:51.161Z,7.55
2018-01-25T07:20:51.695Z,7.58
2018-01-25T07:21:51.705Z,7.45
2018-01-25T07:22:51.392Z,7.51
2018-01-25T07:23:51.657Z,7.47
2018-01-25T07:24:51.111Z,7.55
2018-01-25T07:25:51.084Z,7.52
2018-01-25T07:26:51.072Z,7.58
2018-01-25T07:27:51.701Z,7.47
2018-01-25T07:28:51.342Z,7.68
2018-01-25T07:29:51.035Z,7.61
2018-01-25T07:30:51.306Z,7.63
2018-01-25T07:31:51.011Z,7.54
2018-01-25T07:32:50.994Z,7.64
2018-01-25T07:33:51.257Z,7.52
2018-01-25T07:34:51.242Z,7.52
2018-01-25T07:35:51.231Z,7.55
2018-01-25T07:36:51.213Z,7.49
2018-01-25T07:37:51.625Z,7.51
2018-01-25T07:38:50.936Z,7.55
2018-01-25T07:39:51.178Z,7.37
2018-01-25T07:40:51.165Z,7.41
2018-01-25T07:41:51.165Z,7.49
2018-01-25T07:42:51.417Z,7.37
2018-01-25T07:43:50.855Z,7.37
2018-01-25T07:44:51.152Z,7.33
2018-01-25T07:45:51.375Z,7.31
2018-01-25T07:46:51.095Z,7.37
2018-01-25T07:47:50.803Z,7.34
2018-01-25T07:48:51.357Z,7.36
2018-01-25T07:49:51.325Z,7.21
2018-01-25T07:50:50.789Z,7.21
2018-01-25T07:51:50.768Z,7.21
2018-01-25T07:52:51.013Z,7.22
2018-01-25T07:53:51.289Z,7.22
2018-01-25T07:54:50.992Z,7.26
2018-01-25T07:55:50.980Z,7.26
2018-01-25T07:56:50.725Z,7.22
2018-01-25T07:57:50.680Z,7.18
2018-01-25T07:58:50.967Z,7.26
2018-01-25T07:59:50.926Z,7.11
2018-01-25T08:00:50.913Z,7.15
2018-01-25T08:01:50.630Z,7.04
2018-01-25T08:02:51.156Z,7.05
2018-01-25T08:03:50.893Z,7.04
2018-01-25T08:04:50.875Z,7.08
2018-01-25T08:05:50.588Z,7.04
2018-01-25T08:06:50.851Z,7.09
2018-01-25T08:07:50.551Z,7.16
2018-01-25T08:08:50.571Z,7.23
2018-01-25T08:09:50.526Z,7.3
2018-01-25T08:10:50.528Z,7.4
2018-01-25T08:11:50.780Z,7.44
2018-01-25T08:12:50.489Z,7.47
2018-01-25T08:13:50.758Z,7.44
2018-01-25T08:14:50.498Z,7.58
2018-01-25T08:15:50.452Z,7.63
2018-01-25T08:16:51.005Z,7.61
2018-01-25T08:17:50.738Z,7.67
2018-01-25T08:18:50.683Z,7.73
2018-01-25T08:19:50.673Z,7.77
2018-01-25T08:20:50.943Z,7.82
2018-01-25T08:21:50.374Z,7.88
2018-01-25T08:22:50.660Z,7.77
2018-01-25T08:23:50.349Z,7.78
2018-01-25T08:24:50.384Z,7.85
2018-01-25T08:25:50.620Z,7.89
2018-01-25T08:26:50.623Z,8.03
2018-01-25T08:27:50.330Z,7.91
2018-01-25T08:28:50.611Z,7.95
2018-01-25T08:29:50.275Z,7.89
2018-01-25T08:30:50.532Z,7.92
2018-01-25T08:31:50.520Z,7.91
2018-01-25T08:32:50.237Z,7.95
2018-01-25T08:33:50.769Z,7.89
2018-01-25T08:34:50.219Z,7.95
2018-01-25T08:35:50.490Z,7.99
2018-01-25T08:36:50.813Z,7.93
2018-01-25T08:37:50.448Z,7.89
2018-01-25T08:38:50.448Z,7.98
2018-01-25T08:39:50.190Z,7.93
2018-01-25T08:40:50.425Z,7.99
2018-01-25T08:41:50.455Z,7.98
2018-01-25T08:42:50.112Z,7.98
2018-01-25T08:43:50.397Z,7.98
2018-01-25T08:44:50.366Z,7.99
2018-01-25T08:45:50.091Z,7.93
2018-01-25T08:46:50.333Z,7.96
2018-01-25T08:47:50.070Z,7.96
2018-01-25T08:48:50.308Z,7.99
2018-01-25T08:49:50.328Z,8.01
2018-01-25T08:50:50.296Z,8.03
2018-01-25T08:51:50.584Z,7.96
2018-01-25T08:52:49.991Z,7.98
2018-01-25T08:53:50.248Z,7.96
2018-01-25T08:54:49.967Z,7.98
2018-01-25T08:55:49.968Z,8.03
2018-01-25T08:56:50.238Z,7.95
2018-01-25T08:57:49.976Z,8.01
2018-01-25T08:58:49.930Z,8.01
2018-01-25T08:59:50.178Z,7.96
2018-01-25T09:00:50.180Z,7.92
2018-01-25T09:01:49.896Z,7.95
2018-01-25T09:02:49.869Z,7.99
2018-01-25T09:03:49.860Z,8.04
2018-01-25T09:04:50.118Z,8.01
2018-01-25T09:05:50.104Z,8.04
2018-01-25T09:06:50.092Z,7.93
2018-01-25T09:07:50.114Z,8.03
2018-01-25T09:08:50.070Z,7.99
2018-01-25T09:09:50.065Z,8.01
2018-01-25T09:10:50.043Z,7.93
2018-01-25T09:11:49.952Z,7.95
2018-01-25T09:12:50.024Z,7.99
2018-01-25T09:13:50.280Z,8.01
2018-01-25T09:14:49.737Z,7.98
2018-01-25T09:15:49.984Z,8.06
2018-01-25T09:16:49.970Z,8.03
2018-01-25T09:17:49.688Z,8.03
2018-01-25T09:18:49.677Z,8.04
2018-01-25T09:19:49.675Z,8.03
2018-01-25T09:20:49.920Z,8.03
2018-01-25T09:21:50.181Z,8.06
2018-01-25T09:22:49.991Z,8.1
2018-01-25T09:23:49.617Z,8.03
2018-01-25T09:24:49.618Z,8.06
2018-01-25T09:25:49.591Z,8.03
2018-01-25T09:26:49.578Z,7.99
2018-01-25T09:27:49.566Z,7.95
2018-01-25T09:28:49.826Z,7.95
2018-01-25T09:29:50.085Z,8.06
2018-01-25T09:30:49.532Z,8.07
2018-01-25T09:31:49.789Z,8.03
2018-01-25T09:32:49.533Z,7.99
2018-01-25T09:33:49.516Z,7.98
2018-01-25T09:34:49.797Z,8.03
2018-01-25T09:35:49.739Z,8.04
2018-01-25T09:36:49.492Z,8.07
2018-01-25T09:37:49.717Z,8.07
2018-01-25T09:38:49.434Z,8.1
2018-01-25T09:39:49.694Z,8.07
2018-01-25T09:40:49.980Z,8.17
2018-01-25T09:41:49.949Z,8.22
2018-01-25T09:42:49.675Z,8.14
2018-01-25T09:43:49.373Z,8.24
2018-01-25T09:44:49.417Z,8.14
2018-01-25T09:45:49.349Z,8.1
2018-01-25T09:46:49.611Z,8.11
2018-01-25T09:47:49.597Z,8.16
2018-01-25T09:48:49.989Z,8.19
2018-01-25T09:49:49.342Z,8.14
2018-01-25T09:50:49.290Z,8.17
2018-01-25T09:51:49.566Z,8.13
2018-01-25T09:52:49.280Z,8.16
2018-01-25T09:53:49.546Z,8.24
2018-01-25T09:54:49.790Z,8.24
2018-01-25T09:55:49.234Z,8.21
2018-01-25T09:56:49.522Z,8.17
2018-01-25T09:57:49.483Z,8.21
2018-01-25T09:58:49.489Z,8.25
2018-01-25T09:59:49.183Z,8.21
2018-01-25T10:00:49.442Z,8.32
2018-01-25T10:01:49.700Z,8.25
2018-01-25T10:02:49.699Z,8.35
2018-01-25T10:03:49.420Z,8.35
2018-01-25T10:04:49.124Z,8.36
2018-01-25T10:05:49.663Z,8.32
2018-01-25T10:06:49.648Z,8.35
2018-01-25T10:07:49.361Z,8.43
2018-01-25T10:08:49.079Z,8.42
2018-01-25T10:09:49.064Z,8.49
2018-01-25T10:10:49.051Z,8.47
2018-01-25T10:11:49.041Z,8.54
2018-01-25T10:12:49.300Z,8.49
2018-01-25T10:13:49.017Z,8.69
2018-01-25T10:14:49.277Z,8.6
2018-01-25T10:15:49.265Z,8.67
2018-01-25T10:16:48.983Z,8.79
2018-01-25T10:17:49.520Z,8.79
2018-01-25T10:18:49.501Z,8.76
2018-01-25T10:19:49.220Z,8.82
2018-01-25T10:20:48.937Z,8.79
2018-01-25T10:21:49.200Z,8.86
2018-01-25T10:22:49.181Z,8.86
2018-01-25T10:23:48.900Z,8.86
2018-01-25T10:24:48.887Z,8.82
2018-01-25T10:25:48.877Z,8.82
2018-01-25T10:26:48.870Z,8.95
2018-01-25T10:27:48.880Z,8.9
2018-01-25T10:28:49.113Z,8.97
2018-01-25T10:29:49.114Z,8.83
2018-01-25T10:30:49.098Z,8.79
2018-01-25T10:31:48.823Z,8.94
2018-01-25T10:32:48.796Z,8.82
2018-01-25T10:33:48.784Z,8.89
2018-01-25T10:34:48.792Z,8.79
2018-01-25T10:35:49.050Z,8.83
2018-01-25T10:36:49.024Z,8.83
2018-01-25T10:37:49.012Z,8.85
2018-01-25T10:38:49.287Z,8.83
2018-01-25T10:39:48.717Z,8.94
2018-01-25T10:40:48.986Z,8.89
2018-01-25T10:41:48.964Z,9.03
2018-01-25T10:42:48.953Z,9
2018-01-25T10:43:48.940Z,9
2018-01-25T10:44:49.200Z,8.92
2018-01-25T10:45:48.941Z,9.08
2018-01-25T10:46:48.947Z,9.01
2018-01-25T10:47:48.897Z,9.03
2018-01-25T10:48:48.895Z,9.01
2018-01-25T10:49:48.872Z,9.11
2018-01-25T10:50:48.591Z,9.09
2018-01-25T10:51:48.581Z,9.14
2018-01-25T10:52:48.857Z,9.19
2018-01-25T10:53:48.561Z,9.14
2018-01-25T10:54:48.546Z,9.17
2018-01-25T10:55:48.534Z,9.17
2018-01-25T10:56:48.803Z,9.27
2018-01-25T10:57:49.059Z,9.32
2018-01-25T10:58:48.781Z,9.34
2018-01-25T10:59:48.492Z,9.34
2018-01-25T11:00:48.499Z,9.47
2018-01-25T11:01:48.470Z,9.45
2018-01-25T11:02:48.458Z,9.5
2018-01-25T11:03:48.452Z,9.5
2018-01-25T11:04:48.729Z,9.48
2018-01-25T11:05:48.752Z,9.48
2018-01-25T11:06:48.689Z,9.55
2018-01-25T11:07:48.676Z,9.62
2018-01-25T11:08:48.678Z,9.7
2018-01-25T11:09:48.411Z,9.7
2018-01-25T11:10:48.391Z,9.66
2018-01-25T11:11:48.373Z,9.71
2018-01-25T11:12:48.348Z,9.7
2018-01-25T11:13:48.612Z,9.78
2018-01-25T11:14:48.617Z,9.77
2018-01-25T11:15:48.314Z,9.8
2018-01-25T11:16:48.310Z,9.84
2018-01-25T11:17:48.565Z,9.88
2018-01-25T11:18:48.286Z,9.8
2018-01-25T11:19:48.286Z,9.92
2018-01-25T11:20:48.539Z,9.84
2018-01-25T11:21:48.555Z,9.89
2018-01-25T11:22:48.258Z,9.92
2018-01-25T11:23:48.524Z,9.93
2018-01-25T11:24:48.232Z,9.99
2018-01-25T11:25:48.762Z,9.9
2018-01-25T11:26:48.199Z,9.93
2018-01-25T11:27:48.733Z,9.99
2018-01-25T11:28:48.209Z,9.93
2018-01-25T11:29:48.190Z,9.98
2018-01-25T11:30:48.437Z,10.02
2018-01-25T11:31:48.693Z,10.07
2018-01-25T11:32:48.452Z,10.08
2018-01-25T11:33:48.128Z,10.11
2018-01-25T11:34:48.118Z,10.08
2018-01-25T11:35:48.104Z,10.15
2018-01-25T11:36:48.091Z,10.18
2018-01-25T11:37:48.100Z,10.14
2018-01-25T11:38:48.092Z,10.23
2018-01-25T11:39:48.334Z,10.26
2018-01-25T11:40:48.060Z,10.18
2018-01-25T11:41:48.580Z,10.21
2018-01-25T11:42:48.302Z,10.25
2018-01-25T11:43:48.295Z,10.23
2018-01-25T11:44:48.304Z,10.11
2018-01-25T11:45:48.015Z,10.23
2018-01-25T11:46:48.263Z,10.31
2018-01-25T11:47:48.253Z,10.28
2018-01-25T11:48:48.271Z,10.38
2018-01-25T11:49:47.960Z,10.31
2018-01-25T11:50:48.257Z,10.29
2018-01-25T11:51:48.493Z,10.39
2018-01-25T11:52:48.197Z,10.32
2018-01-25T11:53:48.206Z,10.36
2018-01-25T11:54:47.930Z,10.42
2018-01-25T11:55:47.900Z,10.49
2018-01-25T11:56:48.158Z,10.47
2018-01-25T11:57:47.878Z,10.52
2018-01-25T11:58:48.146Z,10.58
2018-01-25T11:59:47.857Z,10.67
2018-01-25T12:00:48.137Z,10.72
2018-01-25T12:01:48.112Z,10.73
2018-01-25T12:02:48.371Z,10.61
2018-01-25T12:03:48.090Z,10.72
2018-01-25T12:04:48.114Z,10.69
2018-01-25T12:05:48.103Z,10.61
2018-01-25T12:06:47.793Z,10.54
2018-01-25T12:07:48.067Z,10.57
2018-01-25T12:08:48.040Z,10.61
2018-01-25T12:09:48.032Z,10.72
2018-01-25T12:10:47.749Z,10.67
2018-01-25T12:11:48.015Z,10.69
2018-01-25T12:12:48.017Z,10.69
2018-01-25T12:13:48.275Z,10.69
2018-01-25T12:14:48.008Z,10.63
2018-01-25T12:15:47.705Z,10.55
2018-01-25T12:16:47.967Z,10.54
2018-01-25T12:17:48.237Z,10.47
2018-01-25T12:18:47.971Z,10.44
2018-01-25T12:19:47.947Z,10.46
2018-01-25T12:20:47.945Z,10.38
2018-01-25T12:21:47.912Z,10.41
2018-01-25T12:22:47.635Z,10.38
2018-01-25T12:23:48.188Z,10.36
2018-01-25T12:24:47.914Z,10.39
2018-01-25T12:25:47.878Z,10.39
2018-01-25T12:26:47.595Z,10.33
2018-01-25T12:27:47.856Z,10.36
2018-01-25T12:28:47.587Z,10.33
2018-01-25T12:29:48.107Z,10.32
2018-01-25T12:30:47.850Z,10.29
2018-01-25T12:31:47.549Z,10.29
2018-01-25T12:32:47.537Z,10.25
2018-01-25T12:33:47.546Z,10.36
2018-01-25T12:34:47.517Z,10.38
2018-01-25T12:35:47.788Z,10.47
2018-01-25T12:36:47.769Z,10.47
2018-01-25T12:37:47.489Z,10.46
2018-01-25T12:38:47.747Z,10.55
2018-01-25T12:39:47.490Z,10.52
2018-01-25T12:40:47.729Z,10.51
2018-01-25T12:41:47.729Z,10.55
2018-01-25T12:42:47.441Z,10.59
2018-01-25T12:43:47.719Z,10.67
2018-01-25T12:44:47.435Z,10.65
2018-01-25T12:45:47.411Z,10.72
2018-01-25T12:46:47.943Z,10.72
2018-01-25T12:47:47.661Z,10.72
2018-01-25T12:48:47.380Z,10.73
2018-01-25T12:49:47.379Z,10.75
2018-01-25T12:50:47.362Z,10.79
2018-01-25T12:51:47.352Z,10.67
2018-01-25T12:52:47.342Z,10.7
2018-01-25T12:53:47.360Z,10.63
2018-01-25T12:54:47.639Z,10.69
2018-01-25T12:55:47.602Z,10.61
2018-01-25T12:56:47.326Z,10.59
2018-01-25T12:57:47.327Z,10.51
2018-01-25T12:58:47.563Z,10.57
2018-01-25T12:59:47.286Z,10.44
2018-01-25T13:00:47.600Z,10.49
2018-01-25T13:01:47.523Z,10.41
2018-01-25T13:02:47.797Z,10.41
2018-01-25T13:03:47.233Z,10.36
2018-01-25T13:04:47.228Z,10.33
2018-01-25T13:05:47.216Z,10.32
2018-01-25T13:06:47.205Z,10.28
2018-01-25T13:07:47.195Z,10.23
2018-01-25T13:08:47.460Z,10.28
2018-01-25T13:09:47.758Z,10.13
2018-01-25T13:10:47.439Z,10.13
2018-01-25T13:11:47.444Z,10.26
2018-01-25T13:12:47.148Z,10.25
2018-01-25T13:13:47.139Z,10.23
2018-01-25T13:14:47.128Z,10.28
2018-01-25T13:15:47.128Z,10.28
2018-01-25T13:16:47.409Z,10.21
2018-01-25T13:17:47.372Z,10.25
2018-01-25T13:18:47.376Z,10.25